Breaux Bridge, Louisiana
Current Conditions -  °F | °C
As of 5:53 PM on Tuesday 25 Nov 2014 (Local Time) from KLFT Reporting Station
Clear Clear  
Wind Chill: 46°   Ceiling: Unl
Heat Index: 48°   Visibility: 10mi
Dew Point: 33°   Wind: 5mph
Humidity: 56%   Direction: 340°NNW
Pressure: 30.23"   Gusts: NA
Location:  30.27°N, 91.9°W
Report Text: KLFT 252353Z AUTO 34004KT 10SM CLR 09/01 A3023 RMK AO2 SLP236 T00890006 10133 20089 53012
Loading
Personal Weather Stations






























Interactive Weather Map New forecast layout! Learn more

10-Day Weather Forecast

Advertisements
Track Severe Weather on mobile